Time;durP1;ratioP1;P1;durP2;ratioP2;P2;SDS_P1;SDS_P2;PMS_P1;PMS_P2;Temp;Humidity;BMP_temperature;BMP_pressure;BME280_temperature;BME280_humidity;BME280_pressure;Samples;Min_cycle;Max_cycle;Signal;HPM_P1;HPM_P2
2022/12/21 00:01:56;;;;;;;54.80;20.02;;;27.20;90.30;;;;;;5126733;28;20074;-52
2022/12/21 00:04:23;;;;;;;52.83;20.17;;;27.10;90.50;;;;;;5127213;28;20211;-53
2022/12/21 00:06:50;;;;;;;45.53;20.20;;;27.20;90.50;;;;;;5124434;28;20272;-51
2022/12/21 00:09:18;;;;;;;50.97;20.17;;;27.10;90.30;;;;;;5113789;28;20027;-53
2022/12/21 00:11:44;;;;;;;43.17;20.45;;;27.00;90.40;;;;;;5117375;28;20032;-52
2022/12/21 00:14:11;;;;;;;34.78;18.25;;;27.00;90.60;;;;;;5106191;28;20169;-53
2022/12/21 00:16:39;;;;;;;31.80;15.73;;;27.00;90.70;;;;;;5106405;28;20047;-56
2022/12/21 00:19:06;;;;;;;33.85;15.70;;;27.00;90.60;;;;;;5106380;28;20024;-52
2022/12/21 00:21:35;;;;;;;34.75;15.88;;;26.90;90.70;;;;;;5117568;28;20208;-52
2022/12/21 00:24:02;;;;;;;31.23;14.27;;;26.90;90.60;;;;;;5106470;28;20020;-52
2022/12/21 00:26:34;;;;;;;39.03;15.30;;;26.90;90.70;;;;;;5106234;28;20020;-53
2022/12/21 00:29:03;;;;;;;31.60;14.32;;;26.90;90.80;;;;;;5106057;28;20028;-52
2022/12/21 00:31:35;;;;;;;38.90;14.32;;;26.90;90.90;;;;;;5105598;28;20031;-55
2022/12/21 00:34:02;;;;;;;37.15;13.48;;;26.90;90.90;;;;;;5105931;28;20043;-54
2022/12/21 00:36:30;;;;;;;31.10;12.25;;;26.80;91.00;;;;;;5138067;27;20027;-56
2022/12/21 00:38:57;;;;;;;35.03;12.80;;;26.80;90.90;;;;;;5146855;27;20019;-54
2022/12/21 00:41:26;;;;;;;41.35;12.70;;;26.80;90.70;;;;;;5133509;27;20024;-54
2022/12/21 00:43:54;;;;;;;24.23;12.45;;;26.80;90.90;;;;;;5116819;28;20019;-55
2022/12/21 00:46:23;;;;;;;32.05;12.50;;;26.80;90.80;;;;;;5105596;28;20028;-54
2022/12/21 00:48:50;;;;;;;26.88;12.63;;;26.70;90.90;;;;;;5105443;28;20220;-56
2022/12/21 00:51:20;;;;;;;28.58;12.27;;;26.70;91.00;;;;;;5105559;28;20027;-53
2022/12/21 00:53:47;;;;;;;21.15;11.68;;;26.70;91.00;;;;;;5107437;28;20099;-54
2022/12/21 00:56:14;;;;;;;21.13;11.60;;;26.60;90.90;;;;;;5116218;28;20026;-56
2022/12/21 00:58:41;;;;;;;22.98;11.55;;;26.60;90.90;;;;;;5125674;28;20047;-54
2022/12/21 01:01:20;;;;;;;26.20;11.23;;;26.60;90.90;;;;;;5125744;28;20035;-53
2022/12/21 01:03:47;;;;;;;19.70;10.88;;;26.60;90.80;;;;;;5125808;28;20051;-55
2022/12/21 01:06:19;;;;;;;17.98;10.90;;;26.60;90.70;;;;;;5125734;28;20061;-54
2022/12/21 01:08:46;;;;;;;22.95;11.73;;;26.60;90.70;;;;;;5125515;28;20050;-56
2022/12/21 01:11:15;;;;;;;21.23;11.70;;;26.60;90.60;;;;;;5125600;28;20321;-53
2022/12/21 01:13:42;;;;;;;18.05;11.63;;;26.60;90.70;;;;;;5119717;28;20024;-55
2022/12/21 01:16:20;;;;;;;22.15;12.20;;;26.50;90.80;;;;;;5118115;28;20031;-52
2022/12/21 01:18:47;;;;;;;34.80;12.38;;;26.50;90.60;;;;;;5127076;27;20028;-50
2022/12/21 01:21:24;;;;;;;22.38;12.27;;;26.50;90.70;;;;;;5142758;27;20098;-51
2022/12/21 01:23:52;;;;;;;23.38;12.45;;;26.50;90.60;;;;;;5109483;27;20039;-50
2022/12/21 01:26:19;;;;;;;31.38;12.90;;;26.60;90.50;;;;;;5130953;27;20220;-49
2022/12/21 01:28:45;;;;;;;25.40;12.45;;;26.60;90.60;;;;;;5125155;28;20019;-50
2022/12/21 01:31:13;;;;;;;21.48;11.65;;;26.60;90.50;;;;;;5125394;28;20087;-50
2022/12/21 01:33:40;;;;;;;25.35;12.43;;;26.60;90.50;;;;;;5124942;28;20024;-50
2022/12/21 01:36:10;;;;;;;19.73;11.77;;;26.50;90.40;;;;;;5125092;28;20024;-48
2022/12/21 01:38:39;;;;;;;22.58;12.18;;;26.50;90.40;;;;;;5125055;28;20015;-48
2022/12/21 01:41:06;;;;;;;23.55;12.10;;;26.50;90.40;;;;;;5124978;28;20104;-47
2022/12/21 01:43:52;;;;;;;47.53;13.32;;;26.50;90.40;;;;;;5102859;28;20083;-48
2022/12/21 01:46:37;;;;;;;34.70;12.15;;;26.50;90.40;;;;;;5123078;28;20080;-48
2022/12/21 01:49:24;;;;;;;25.48;13.98;;;26.50;90.30;;;;;;5124350;28;20099;-49
2022/12/21 01:51:58;;;;;;;28.48;15.05;;;26.50;90.30;;;;;;5124826;28;20034;-50
2022/12/21 01:54:32;;;;;;;32.60;13.48;;;26.40;90.50;;;;;;5125129;28;20074;-50
2022/12/21 01:57:02;;;;;;;26.25;13.35;;;26.30;90.50;;;;;;5124692;28;20036;-49
2022/12/21 01:59:47;;;;;;;23.67;13.20;;;26.30;90.50;;;;;;5124764;28;20087;-50
2022/12/21 02:02:23;;;;;;;22.65;13.35;;;26.30;90.50;;;;;;5106228;28;20318;-49
2022/12/21 02:04:52;;;;;;;21.35;12.95;;;26.30;90.60;;;;;;5124957;28;20023;-51
2022/12/21 02:07:20;;;;;;;22.92;13.18;;;26.20;90.50;;;;;;5124602;28;20090;-51
2022/12/21 02:09:50;;;;;;;22.30;13.20;;;26.30;90.60;;;;;;5124544;28;20019;-52
2022/12/21 02:12:17;;;;;;;21.27;13.27;;;26.20;90.50;;;;;;5124855;28;20011;-50
2022/12/21 02:14:46;;;;;;;21.85;13.23;;;26.20;90.60;;;;;;5121678;28;20016;-50
2022/12/21 02:17:52;;;;;;;22.48;12.50;;;26.20;90.60;;;;;;5114545;28;20083;-50
2022/12/21 02:21:03;;;;;;;22.95;12.48;;;26.10;90.60;;;;;;5100572;28;20091;-48
2022/12/21 02:23:38;;;;;;;25.40;12.00;;;26.10;90.60;;;;;;5104039;28;20024;-49
2022/12/21 02:26:42;;;;;;;19.45;10.95;;;26.10;90.50;;;;;;5104242;28;20040;-47
2022/12/21 02:29:15;;;;;;;18.48;10.88;;;26.00;90.50;;;;;;5104085;28;20113;-49
2022/12/21 02:31:54;;;;;;;20.23;10.82;;;26.00;90.50;;;;;;5103704;28;20058;-47
2022/12/21 02:34:45;;;;;;;16.65;11.02;;;26.00;90.40;;;;;;5116081;28;20072;-49
2022/12/21 02:37:53;;;;;;;19.10;10.65;;;26.00;90.30;;;;;;5144701;28;20200;-49
2022/12/21 02:40:54;;;;;;;22.88;10.50;;;25.90;90.30;;;;;;5104681;28;20099;-47
2022/12/21 02:46:39;;;;;;;24.38;9.88;;;26.00;90.20;;;;;;5120551;28;20205;-51
2022/12/21 02:49:10;;;;;;;21.85;10.25;;;26.30;90.10;;;;;;5114976;28;20067;-51
2022/12/21 02:51:48;;;;;;;17.77;10.13;;;26.40;89.80;;;;;;5121495;28;20196;-53
2022/12/21 02:54:16;;;;;;;16.90;9.60;;;26.50;89.40;;;;;;5104812;28;20077;-51
2022/12/21 02:56:43;;;;;;;16.15;10.00;;;26.60;88.80;;;;;;5117793;28;20028;-51
2022/12/21 02:59:13;;;;;;;17.83;9.32;;;26.70;88.30;;;;;;5125429;28;20012;-47
2022/12/21 03:01:58;;;;;;;21.05;9.55;;;26.80;87.80;;;;;;5128847;27;20054;-51
2022/12/21 03:04:33;;;;;;;20.90;9.55;;;26.90;87.40;;;;;;5128316;28;20016;-53
2022/12/21 03:07:38;;;;;;;17.52;9.18;;;26.90;87.10;;;;;;5128173;28;20104;-54
2022/12/21 03:10:35;;;;;;;18.85;8.73;;;27.00;86.50;;;;;;5128580;28;20048;-50
2022/12/21 03:13:08;;;;;;;15.05;8.23;;;27.00;86.20;;;;;;5127818;28;20103;-51
2022/12/21 03:16:20;;;;;;;10.13;8.20;;;27.00;85.80;;;;;;5128164;28;20020;-48
2022/12/21 03:18:46;;;;;;;14.70;8.35;;;27.10;85.40;;;;;;5114454;28;20063;-49
2022/12/21 03:21:21;;;;;;;13.43;7.78;;;27.10;85.10;;;;;;5125372;28;20160;-48
2022/12/21 03:24:11;;;;;;;18.13;8.20;;;27.10;84.80;;;;;;5116471;28;20250;-51
2022/12/21 03:26:56;;;;;;;15.48;8.00;;;27.10;84.30;;;;;;5096683;28;20319;-49
2022/12/21 03:29:30;;;;;;;12.77;7.93;;;27.10;84.00;;;;;;5107194;28;20035;-53
2022/12/21 03:32:03;;;;;;;14.15;7.30;;;27.10;83.80;;;;;;5106700;28;20028;-49
2022/12/21 03:34:35;;;;;;;13.45;6.80;;;27.10;83.40;;;;;;5107293;28;20032;-47
2022/12/21 03:37:05;;;;;;;10.88;6.68;;;27.20;83.00;;;;;;5107073;28;20028;-49
2022/12/21 03:39:37;;;;;;;9.63;6.57;;;27.10;82.40;;;;;;5107065;28;20024;-48
2022/12/21 03:42:14;;;;;;;11.75;6.55;;;27.20;82.10;;;;;;5106967;28;20067;-49
2022/12/21 03:44:47;;;;;;;9.32;6.13;;;27.20;81.80;;;;;;5118818;28;20023;-50
2022/12/21 03:47:18;;;;;;;10.73;6.40;;;27.20;81.30;;;;;;5117545;28;20077;-50
2022/12/21 03:49:51;;;;;;;11.38;5.72;;;27.10;80.80;;;;;;5106617;28;20044;-49
2022/12/21 03:52:22;;;;;;;11.90;5.32;;;27.10;80.40;;;;;;5106859;28;20031;-46
2022/12/21 03:55:00;;;;;;;9.07;5.50;;;27.20;80.20;;;;;;5106959;28;20024;-48
2022/12/21 03:57:27;;;;;;;9.20;5.30;;;27.20;79.60;;;;;;5106724;28;20040;-47
2022/12/21 03:59:57;;;;;;;7.70;4.95;;;27.10;79.30;;;;;;5106830;28;20028;-45
2022/12/21 04:03:03;;;;;;;8.90;4.97;;;27.10;79.00;;;;;;5106176;28;20036;-45
2022/12/21 04:05:44;;;;;;;6.13;4.32;;;27.10;78.60;;;;;;5106526;28;20212;-47
2022/12/21 04:08:12;;;;;;;11.23;5.18;;;27.10;78.10;;;;;;5115308;28;20040;-45
2022/12/21 04:10:40;;;;;;;5.38;4.20;;;27.10;77.90;;;;;;5117852;28;20019;-46
2022/12/21 04:13:06;;;;;;;7.93;4.47;;;27.10;77.60;;;;;;5108276;28;20024;-48
2022/12/21 04:19:57;;;;;;;6.78;4.20;;;27.10;77.20;;;;;;5106124;28;20039;-46
2022/12/21 04:21:05;;;;;;;9.73;4.25;;;27.10;77.10;;;;;;5117316;28;20039;-47
2022/12/21 04:29:02;;;;;;;8.63;3.92;;;27.10;76.50;;;;;;5106053;28;20362;-51
2022/12/21 04:31:29;;;;;;;6.57;4.13;;;27.10;76.40;;;;;;5111693;28;20050;-48
2022/12/21 04:33:56;;;;;;;7.93;4.30;;;27.10;76.30;;;;;;5121893;28;20288;-49
2022/12/21 04:39:07;;;;;;;11.85;4.10;;;27.10;75.80;;;;;;5107937;28;20197;-52
2022/12/21 04:41:34;;;;;;;9.65;4.10;;;27.10;75.70;;;;;;5116660;28;20561;-49
2022/12/21 04:44:00;;;;;;;10.68;3.85;;;27.10;75.60;;;;;;5117090;28;20048;-53
2022/12/21 04:46:27;;;;;;;6.93;4.50;;;27.00;75.50;;;;;;5105359;28;20035;-52
2022/12/21 04:48:53;;;;;;;9.95;4.38;;;27.00;75.60;;;;;;5105243;28;20275;-47
2022/12/21 04:51:23;;;;;;;11.50;4.63;;;27.00;75.80;;;;;;5105363;28;20312;-50
2022/12/21 04:53:51;;;;;;;9.63;4.97;;;27.00;75.90;;;;;;5105460;28;20028;-48
2022/12/21 04:56:18;;;;;;;9.77;5.95;;;27.00;75.80;;;;;;5107268;28;20304;-48
2022/12/21 04:58:46;;;;;;;16.45;10.43;;;27.00;76.10;;;;;;5112144;28;20083;-48
2022/12/21 05:01:18;;;;;;;15.50;13.10;;;27.00;76.20;;;;;;5117084;28;20238;-53
2022/12/21 05:03:45;;;;;;;17.23;10.75;;;27.00;76.40;;;;;;5105227;28;20309;-49
2022/12/21 05:06:13;;;;;;;11.52;7.93;;;27.00;76.50;;;;;;5105225;28;20118;-50
2022/12/21 05:08:40;;;;;;;11.45;6.40;;;27.00;76.70;;;;;;5107718;28;20016;-51
2022/12/21 05:11:12;;;;;;;12.32;6.22;;;27.00;76.90;;;;;;5113473;28;20114;-49
2022/12/21 05:13:41;;;;;;;7.82;5.38;;;27.00;77.10;;;;;;5117018;28;20027;-50
2022/12/21 05:16:11;;;;;;;12.40;5.30;;;26.90;77.20;;;;;;5107923;28;20069;-49
2022/12/21 05:18:38;;;;;;;11.45;5.40;;;26.90;77.40;;;;;;5104768;28;20058;-47
2022/12/21 05:21:05;;;;;;;10.57;5.18;;;26.90;77.70;;;;;;5104986;28;20341;-52
2022/12/21 05:23:31;;;;;;;10.27;5.60;;;26.90;77.90;;;;;;5104746;28;20055;-47
2022/12/21 05:25:59;;;;;;;12.65;6.00;;;26.90;78.20;;;;;;5129181;27;20211;-49
2022/12/21 05:28:26;;;;;;;11.02;5.70;;;26.90;78.50;;;;;;5124728;28;20031;-51
2022/12/21 05:30:52;;;;;;;10.40;5.57;;;26.90;78.80;;;;;;5125456;28;20189;-54
2022/12/21 05:33:19;;;;;;;10.95;5.80;;;26.90;79.20;;;;;;5125182;28;20027;-55
2022/12/21 05:35:45;;;;;;;11.63;5.90;;;26.90;79.50;;;;;;5125478;28;20030;-54
2022/12/21 05:38:12;;;;;;;14.38;6.00;;;26.80;79.70;;;;;;5124825;28;20032;-47
2022/12/21 05:40:39;;;;;;;10.88;5.80;;;26.90;80.00;;;;;;5125474;28;20094;-51
2022/12/21 05:43:06;;;;;;;10.27;5.68;;;26.90;80.10;;;;;;5125028;28;20331;-49
2022/12/21 05:45:33;;;;;;;9.38;5.70;;;26.90;80.20;;;;;;5125241;28;20026;-52
2022/12/21 05:48:00;;;;;;;13.43;5.80;;;26.90;80.30;;;;;;5125074;28;20052;-50
2022/12/21 05:50:26;;;;;;;12.95;6.55;;;26.90;80.30;;;;;;5125144;28;20333;-53
2022/12/21 05:52:53;;;;;;;10.25;6.03;;;26.90;80.40;;;;;;5124860;28;20053;-49
2022/12/21 05:55:19;;;;;;;9.50;5.90;;;26.90;80.40;;;;;;5125657;28;20270;-50
2022/12/21 05:57:46;;;;;;;12.23;6.05;;;26.90;80.50;;;;;;5125131;28;20254;-47
2022/12/21 06:00:13;;;;;;;11.07;6.57;;;26.80;80.50;;;;;;5125185;28;20047;-54
2022/12/21 06:02:40;;;;;;;11.43;5.93;;;26.80;80.50;;;;;;5124910;28;20035;-47
2022/12/21 06:05:08;;;;;;;13.20;5.90;;;26.80;80.60;;;;;;5124059;28;20023;-53
2022/12/21 06:07:35;;;;;;;11.05;5.88;;;26.80;80.60;;;;;;5124641;28;20209;-50
2022/12/21 06:10:02;;;;;;;8.68;5.47;;;26.80;80.40;;;;;;5124801;28;20030;-51
2022/12/21 06:12:30;;;;;;;10.80;6.00;;;26.80;80.30;;;;;;5124669;28;20035;-55
2022/12/21 06:14:57;;;;;;;8.43;5.50;;;26.80;80.30;;;;;;5124776;28;20027;-47
2022/12/21 06:17:26;;;;;;;9.20;5.70;;;26.80;80.10;;;;;;5124863;28;20090;-48
2022/12/21 06:19:52;;;;;;;9.35;5.43;;;26.80;80.00;;;;;;5124857;28;20141;-51
2022/12/21 06:22:19;;;;;;;8.13;5.45;;;26.80;79.70;;;;;;5124476;28;20030;-48
2022/12/21 06:24:46;;;;;;;9.55;6.05;;;26.70;79.60;;;;;;5124559;28;20023;-46
2022/12/21 06:27:12;;;;;;;11.55;5.65;;;26.70;79.60;;;;;;5124398;28;20063;-51
2022/12/21 06:29:39;;;;;;;9.77;5.80;;;26.70;79.70;;;;;;5124740;28;20027;-50
2022/12/21 06:32:05;;;;;;;10.82;5.88;;;26.70;79.70;;;;;;5128500;28;20338;-50
2022/12/21 06:34:32;;;;;;;11.35;6.20;;;26.70;79.80;;;;;;5129126;28;20022;-51
2022/12/21 06:36:58;;;;;;;11.10;5.90;;;26.70;79.90;;;;;;5128647;28;20051;-51
2022/12/21 06:39:25;;;;;;;10.25;6.10;;;26.70;80.00;;;;;;5129002;28;20031;-48
2022/12/21 06:41:51;;;;;;;8.13;5.00;;;26.60;80.00;;;;;;5128654;28;20095;-51
2022/12/21 06:44:18;;;;;;;10.23;5.63;;;26.60;80.00;;;;;;5128711;28;20241;-57
2022/12/21 06:46:44;;;;;;;9.38;5.57;;;26.70;80.00;;;;;;5128383;28;20015;-48
2022/12/21 06:49:12;;;;;;;11.00;5.60;;;26.60;79.70;;;;;;5128133;28;20116;-52
2022/12/21 06:51:38;;;;;;;9.48;5.35;;;26.60;79.30;;;;;;5128180;28;20073;-53
2022/12/21 06:54:05;;;;;;;8.15;4.65;;;26.60;78.90;;;;;;5128164;28;20054;-52
2022/12/21 06:56:32;;;;;;;9.43;5.05;;;26.60;78.50;;;;;;5128245;28;20086;-50
2022/12/21 06:58:58;;;;;;;8.57;4.85;;;26.60;78.40;;;;;;5128182;28;20029;-46
2022/12/21 07:01:31;;;;;;;7.70;4.90;;;26.60;78.50;;;;;;5128027;28;20031;-48
2022/12/21 07:03:58;;;;;;;10.05;5.22;;;26.60;78.60;;;;;;5128138;28;20303;-47
2022/12/21 07:06:26;;;;;;;9.88;5.50;;;26.60;78.70;;;;;;5128272;28;20031;-50
2022/12/21 07:08:53;;;;;;;11.93;6.07;;;26.60;79.00;;;;;;5127903;28;20019;-54
2022/12/21 07:11:23;;;;;;;16.23;6.60;;;26.60;79.10;;;;;;5127869;28;20258;-46
2022/12/21 07:13:52;;;;;;;12.55;7.05;;;26.60;79.30;;;;;;5128234;28;20039;-48
2022/12/21 07:16:19;;;;;;;15.38;7.55;;;26.60;79.50;;;;;;5128141;28;20325;-48
2022/12/21 07:18:46;;;;;;;13.35;7.03;;;26.60;79.70;;;;;;5127966;28;20036;-50
2022/12/21 07:21:18;;;;;;;13.13;6.22;;;26.60;79.80;;;;;;5127788;28;20098;-53
2022/12/21 07:23:46;;;;;;;13.75;6.53;;;26.60;79.80;;;;;;5127828;28;20036;-54
2022/12/21 07:26:16;;;;;;;11.00;5.80;;;26.60;79.60;;;;;;5127787;28;20052;-51
2022/12/21 07:28:47;;;;;;;10.57;5.38;;;26.50;79.80;;;;;;5127592;28;20054;-56
2022/12/21 07:31:18;;;;;;;13.38;5.63;;;26.50;79.10;;;;;;5127599;28;20247;-53
2022/12/21 07:33:45;;;;;;;7.60;4.30;;;26.50;78.80;;;;;;5127413;28;20015;-49
2022/12/21 07:36:12;;;;;;;6.63;4.47;;;26.50;78.40;;;;;;5127370;28;20027;-51
2022/12/21 07:38:40;;;;;;;7.82;4.05;;;26.50;78.10;;;;;;5127485;28;20018;-52
2022/12/21 07:41:09;;;;;;;8.77;4.35;;;26.50;77.60;;;;;;5127256;28;20224;-52
2022/12/21 07:43:36;;;;;;;5.93;4.03;;;26.50;77.40;;;;;;5127313;28;20069;-49
2022/12/21 07:46:03;;;;;;;8.63;4.35;;;26.50;77.10;;;;;;5127653;28;20055;-49
2022/12/21 07:48:30;;;;;;;7.78;3.67;;;26.50;76.80;;;;;;5127189;28;20054;-47
2022/12/21 07:50:57;;;;;;;6.97;3.58;;;26.50;76.50;;;;;;5127325;28;20030;-50
2022/12/21 07:53:24;;;;;;;6.05;3.58;;;26.50;76.20;;;;;;5127237;28;20327;-48
2022/12/21 07:55:51;;;;;;;10.50;6.18;;;26.50;76.20;;;;;;5125758;28;20091;-48
2022/12/21 07:58:17;;;;;;;15.45;10.85;;;26.40;75.90;;;;;;5126471;28;20027;-51
2022/12/21 08:00:45;;;;;;;19.27;12.23;;;26.40;75.70;;;;;;5127509;28;20031;-50
2022/12/21 08:03:11;;;;;;;17.45;11.70;;;26.50;75.80;;;;;;5127560;28;20208;-51
2022/12/21 08:05:38;;;;;;;21.35;13.38;;;26.40;75.80;;;;;;5127548;28;20046;-55
2022/12/21 08:08:05;;;;;;;19.08;12.73;;;26.40;75.90;;;;;;5126828;28;20031;-53
2022/12/21 08:10:32;;;;;;;17.02;10.77;;;26.40;76.00;;;;;;5127605;28;20296;-53
2022/12/21 08:12:59;;;;;;;13.77;9.25;;;26.40;76.30;;;;;;5126696;28;20042;-55
2022/12/21 08:15:25;;;;;;;12.50;8.35;;;26.40;76.50;;;;;;5127288;28;20008;-53
2022/12/21 08:17:53;;;;;;;12.35;7.47;;;26.40;76.60;;;;;;5126679;28;20133;-52
2022/12/21 08:20:20;;;;;;;9.27;6.45;;;26.40;76.80;;;;;;5126843;28;20041;-51
2022/12/21 08:22:46;;;;;;;13.82;6.07;;;26.40;76.80;;;;;;5126817;28;20094;-50
2022/12/21 08:25:13;;;;;;;10.15;5.93;;;26.40;76.80;;;;;;5127267;28;20035;-53
2022/12/21 08:27:41;;;;;;;9.48;5.47;;;26.40;76.90;;;;;;5126464;28;20024;-54
2022/12/21 08:30:08;;;;;;;9.52;5.40;;;26.40;76.90;;;;;;5126582;28;20284;-52
2022/12/21 08:32:35;;;;;;;9.18;4.78;;;26.40;77.00;;;;;;5126408;28;20055;-52
2022/12/21 08:35:02;;;;;;;8.60;4.68;;;26.40;77.10;;;;;;5126349;28;20031;-50
2022/12/21 08:37:28;;;;;;;8.73;4.72;;;26.40;77.10;;;;;;5126419;28;20031;-53
2022/12/21 08:39:55;;;;;;;10.00;5.20;;;26.40;77.10;;;;;;5126792;28;20023;-51
2022/12/21 08:42:21;;;;;;;7.60;5.38;;;26.40;77.10;;;;;;5126169;28;20087;-51
2022/12/21 08:44:48;;;;;;;9.50;5.00;;;26.40;77.20;;;;;;5123456;28;20059;-50
2022/12/21 08:47:15;;;;;;;9.48;5.50;;;26.40;77.30;;;;;;5112797;28;20055;-47
2022/12/21 08:49:42;;;;;;;10.80;5.10;;;26.40;77.40;;;;;;5123179;27;20051;-50
2022/12/21 08:52:08;;;;;;;10.75;5.28;;;26.40;77.50;;;;;;5111944;28;20028;-50
2022/12/21 08:54:35;;;;;;;9.40;5.07;;;26.40;77.40;;;;;;5117690;28;20307;-56
2022/12/21 08:57:01;;;;;;;9.55;4.68;;;26.40;77.30;;;;;;5105931;28;20028;-56
2022/12/21 08:59:28;;;;;;;9.35;4.90;;;26.40;77.20;;;;;;5105879;28;20020;-50
2022/12/21 09:01:54;;;;;;;10.00;5.43;;;26.40;77.10;;;;;;5119682;28;20125;-57
2022/12/21 09:04:21;;;;;;;11.50;6.18;;;26.40;77.20;;;;;;5126101;28;20056;-54
2022/12/21 09:06:47;;;;;;;13.13;6.03;;;26.40;77.50;;;;;;5125881;28;20210;-52
2022/12/21 09:09:14;;;;;;;10.93;5.97;;;26.40;77.80;;;;;;5118586;28;20069;-52
2022/12/21 09:11:41;;;;;;;13.75;6.82;;;26.30;77.90;;;;;;5107032;28;20019;-50
2022/12/21 09:14:07;;;;;;;14.25;6.97;;;26.40;78.20;;;;;;5105434;28;20300;-53
2022/12/21 09:16:34;;;;;;;8.65;6.95;;;26.40;78.30;;;;;;5114595;28;20027;-52
2022/12/21 09:19:00;;;;;;;9.70;6.57;;;26.30;78.30;;;;;;5108829;28;20073;-52
2022/12/21 09:21:27;;;;;;;15.60;6.20;;;26.30;78.40;;;;;;5112685;28;20343;-53
2022/12/21 09:23:54;;;;;;;11.20;6.28;;;26.30;78.50;;;;;;5115168;28;20215;-53
2022/12/21 09:26:20;;;;;;;10.40;6.22;;;26.30;78.60;;;;;;5116256;28;20039;-53
2022/12/21 09:28:47;;;;;;;11.35;5.93;;;26.30;78.60;;;;;;5125151;28;20355;-53
2022/12/21 09:31:19;;;;;;;10.27;5.88;;;26.30;78.60;;;;;;5125105;28;20042;-51
2022/12/21 09:33:46;;;;;;;9.85;5.35;;;26.30;78.60;;;;;;5125430;28;20260;-54
2022/12/21 09:36:14;;;;;;;14.95;5.25;;;26.30;78.60;;;;;;5124969;28;20055;-54
2022/12/21 09:38:41;;;;;;;7.90;5.00;;;26.30;78.60;;;;;;5125026;28;20024;-55
2022/12/21 09:41:26;;;;;;;10.48;5.60;;;26.30;78.50;;;;;;5124249;28;20027;-54
2022/12/21 09:44:01;;;;;;;11.18;4.65;;;26.30;78.50;;;;;;5109667;28;20028;-55
2022/12/21 09:46:29;;;;;;;9.18;5.47;;;26.30;78.50;;;;;;5112767;28;20028;-51
2022/12/21 09:49:03;;;;;;;11.23;4.70;;;26.30;78.40;;;;;;5123831;28;20239;-52
2022/12/21 09:51:32;;;;;;;11.43;4.90;;;26.30;78.30;;;;;;5116006;28;20047;-53
2022/12/21 09:54:12;;;;;;;8.93;4.47;;;26.30;78.30;;;;;;5124795;28;20191;-49
2022/12/21 09:56:46;;;;;;;9.55;4.40;;;26.30;78.30;;;;;;5099354;28;20198;-52
2022/12/21 09:59:14;;;;;;;7.70;4.15;;;26.30;78.20;;;;;;5104406;28;20036;-55
2022/12/21 10:01:55;;;;;;;6.95;4.38;;;26.30;78.10;;;;;;5114716;28;20051;-53
2022/12/21 10:04:49;;;;;;;9.75;4.53;;;26.30;78.10;;;;;;5103770;28;20092;-53
2022/12/21 10:07:51;;;;;;;9.13;4.25;;;26.30;78.10;;;;;;5105957;28;20197;-48
2022/12/21 10:10:17;;;;;;;10.10;4.57;;;26.20;78.00;;;;;;5107690;28;20227;-53
2022/12/21 10:12:59;;;;;;;9.27;4.25;;;26.30;78.10;;;;;;5104327;28;20024;-56
2022/12/21 10:15:41;;;;;;;8.45;4.30;;;26.30;78.10;;;;;;5105244;28;20031;-52
2022/12/21 10:19:12;;;;;;;10.77;4.63;;;26.30;78.00;;;;;;5104541;28;20081;-55
2022/12/21 10:21:49;;;;;;;8.85;4.65;;;26.30;77.90;;;;;;5041217;28;20110;-51
2022/12/21 10:24:26;;;;;;;9.00;4.10;;;26.30;77.80;;;;;;5104222;28;20051;-52
2022/12/21 10:26:59;;;;;;;6.55;4.15;;;26.30;77.70;;;;;;5104449;28;20032;-51
2022/12/21 10:29:34;;;;;;;11.90;4.28;;;26.30;77.60;;;;;;5104341;28;20069;-50
2022/12/21 10:32:02;;;;;;;7.53;4.40;;;26.30;77.50;;;;;;5107437;28;20073;-54
2022/12/21 10:34:36;;;;;;;7.60;4.68;;;26.30;77.40;;;;;;5122119;28;20160;-53
2022/12/21 10:37:20;;;;;;;16.65;5.20;;;26.30;77.30;;;;;;5123553;28;20031;-48
2022/12/21 10:39:52;;;;;;;10.15;4.68;;;26.30;77.20;;;;;;5104124;28;20087;-52
2022/12/21 10:42:35;;;;;;;15.75;4.40;;;26.20;77.00;;;;;;5104497;28;20347;-48
2022/12/21 10:45:01;;;;;;;11.52;4.90;;;26.30;77.00;;;;;;5114743;28;20039;-50
2022/12/21 10:47:28;;;;;;;13.88;4.70;;;26.20;76.80;;;;;;5124102;28;20027;-51
2022/12/21 10:50:06;;;;;;;15.00;5.00;;;26.30;76.90;;;;;;5127205;28;20031;-51
2022/12/21 10:52:44;;;;;;;10.95;5.35;;;26.30;76.70;;;;;;5117953;28;20117;-52
2022/12/21 10:55:19;;;;;;;10.48;4.95;;;26.30;76.70;;;;;;5124367;28;20023;-53
2022/12/21 10:57:48;;;;;;;11.82;4.40;;;26.30;76.60;;;;;;5122228;28;20023;-51
2022/12/21 11:00:29;;;;;;;13.07;4.85;;;26.30;76.70;;;;;;5122920;28;20302;-50
2022/12/21 11:03:00;;;;;;;12.98;4.72;;;26.30;76.60;;;;;;5124039;28;20079;-50
2022/12/21 11:05:42;;;;;;;14.15;4.20;;;26.30;76.60;;;;;;5124455;28;20288;-49
2022/12/21 11:08:24;;;;;;;16.63;4.53;;;26.30;76.60;;;;;;5123222;28;20031;-49
2022/12/21 11:10:55;;;;;;;17.13;4.67;;;26.30;76.60;;;;;;5116620;28;20367;-55
2022/12/21 11:13:24;;;;;;;10.98;4.35;;;26.20;76.60;;;;;;5116498;28;20577;-52
2022/12/21 11:15:55;;;;;;;18.00;4.70;;;26.30;76.60;;;;;;5123744;28;20024;-56
2022/12/21 11:18:34;;;;;;;15.43;4.63;;;26.20;76.50;;;;;;5125544;28;20090;-50
2022/12/21 11:21:03;;;;;;;17.20;4.53;;;26.30;76.80;;;;;;5106292;28;20036;-47
2022/12/21 11:23:31;;;;;;;20.63;5.78;;;26.20;76.80;;;;;;5107004;28;20247;-52
2022/12/21 11:25:59;;;;;;;27.65;7.75;;;26.20;77.20;;;;;;5106579;28;20024;-50
2022/12/21 11:28:26;;;;;;;28.77;8.13;;;26.10;77.40;;;;;;5106654;28;20032;-53
2022/12/21 11:31:01;;;;;;;16.50;6.50;;;26.00;77.60;;;;;;5107290;28;20031;-56
2022/12/21 11:33:28;;;;;;;17.13;5.60;;;26.10;77.70;;;;;;5107012;28;20206;-53
2022/12/21 11:36:10;;;;;;;18.80;6.05;;;26.10;77.70;;;;;;5107540;28;20080;-54
2022/12/21 11:38:39;;;;;;;10.90;4.95;;;26.10;77.80;;;;;;5106370;28;20051;-55
2022/12/21 11:41:27;;;;;;;15.30;5.20;;;26.10;77.80;;;;;;5105092;28;20059;-55
2022/12/21 11:43:55;;;;;;;14.18;5.18;;;26.10;77.80;;;;;;5104457;28;20051;-54
2022/12/21 11:46:33;;;;;;;13.95;4.47;;;26.10;77.80;;;;;;5104876;28;20031;-53
2022/12/21 11:49:09;;;;;;;9.25;4.38;;;26.20;77.90;;;;;;5104981;28;20339;-55
2022/12/21 11:51:50;;;;;;;11.27;4.13;;;26.20;77.90;;;;;;5105173;28;20036;-53
2022/12/21 11:54:45;;;;;;;13.10;4.57;;;26.20;77.90;;;;;;5106883;28;20030;-53
2022/12/21 11:57:39;;;;;;;12.27;4.57;;;26.20;78.50;;;;;;5106517;28;20031;-54
2022/12/21 12:00:25;;;;;;;11.93;4.80;;;26.20;78.10;;;;;;5106526;28;20028;-54
2022/12/21 12:03:13;;;;;;;13.20;3.97;;;26.20;78.30;;;;;;5106600;28;20328;-53
2022/12/21 12:06:11;;;;;;;12.10;4.22;;;26.30;78.50;;;;;;5114510;28;20024;-53
2022/12/21 12:08:43;;;;;;;15.27;4.47;;;26.20;78.50;;;;;;5103123;28;20028;-56
2022/12/21 12:11:10;;;;;;;14.65;4.43;;;26.30;78.60;;;;;;5106420;28;20099;-53
2022/12/21 12:13:46;;;;;;;11.88;4.25;;;26.30;78.50;;;;;;5106694;28;20022;-54
2022/12/21 12:16:18;;;;;;;15.48;4.55;;;26.30;78.50;;;;;;5106277;28;20034;-57
2022/12/21 12:18:57;;;;;;;14.00;4.65;;;26.30;78.50;;;;;;5105744;28;20356;-54
2022/12/21 12:21:41;;;;;;;16.27;5.90;;;26.30;78.40;;;;;;5106228;28;20151;-54
2022/12/21 12:24:29;;;;;;;14.77;6.30;;;26.30;78.20;;;;;;5100758;28;20019;-54
2022/12/21 12:27:19;;;;;;;15.90;5.90;;;26.40;78.20;;;;;;5106119;28;20047;-53
2022/12/21 12:30:07;;;;;;;21.48;5.63;;;26.40;78.20;;;;;;5106160;28;20012;-55
2022/12/21 12:32:49;;;;;;;12.43;5.35;;;26.40;78.00;;;;;;5106034;28;20031;-60
2022/12/21 12:35:21;;;;;;;14.40;5.13;;;26.50;78.00;;;;;;5105603;28;20357;-58
2022/12/21 12:37:47;;;;;;;;;;;26.50;78.10;;;;;;5106415;28;20032;-54
2022/12/21 12:40:17;;;;;;;14.93;5.00;;;26.50;78.00;;;;;;5106139;28;20203;-55
2022/12/21 12:43:01;;;;;;;10.85;4.80;;;26.50;78.10;;;;;;5105698;28;20395;-54
2022/12/21 12:45:42;;;;;;;9.73;4.22;;;26.50;78.00;;;;;;5105589;28;20023;-54
2022/12/21 12:48:24;;;;;;;11.50;4.30;;;26.50;78.00;;;;;;5104571;28;20063;-53
2022/12/21 12:51:17;;;;;;;14.32;4.47;;;26.50;77.90;;;;;;5105927;28;20059;-54
2022/12/21 12:53:57;;;;;;;15.07;4.93;;;26.60;78.00;;;;;;5102095;28;20047;-54
2022/12/21 12:56:51;;;;;;;13.50;4.75;;;26.60;77.90;;;;;;5105916;28;20099;-55
2022/12/21 12:59:41;;;;;;;21.77;5.25;;;26.60;77.90;;;;;;5109574;28;20016;-55
2022/12/21 13:02:24;;;;;;;12.52;4.32;;;26.60;78.00;;;;;;5057939;28;20074;-55
2022/12/21 13:05:17;;;;;;;12.35;4.82;;;26.60;78.10;;;;;;5103707;28;20185;-55
2022/12/21 13:07:51;;;;;;;12.00;4.80;;;26.60;78.20;;;;;;5084783;28;20021;-56
2022/12/21 13:10:22;;;;;;;12.65;4.50;;;26.70;78.30;;;;;;5086154;28;20025;-55
2022/12/21 13:13:03;;;;;;;12.30;4.90;;;26.70;78.40;;;;;;5105403;28;20038;-54
2022/12/21 13:15:44;;;;;;;9.65;4.10;;;26.70;78.80;;;;;;5105583;28;20423;-54
2022/12/21 13:18:16;;;;;;;13.48;4.22;;;26.70;77.90;;;;;;5104898;28;20020;-53
2022/12/21 13:20:46;;;;;;;11.32;4.95;;;26.70;77.90;;;;;;5105926;28;20032;-53